createdAt,value
2022-10-16T00:01:06.379Z,2.80
2022-10-16T00:03:34.451Z,2.90
2022-10-16T00:06:03.270Z,2.70
2022-10-16T00:08:31.671Z,2.93
2022-10-16T00:11:05.349Z,2.80
2022-10-16T00:13:35.896Z,3.33
2022-10-16T00:16:04.384Z,3.40
2022-10-16T00:18:33.125Z,3.27
2022-10-16T00:21:04.708Z,3.23
2022-10-16T00:23:33.255Z,3.20
2022-10-16T00:26:03.118Z,3.67
2022-10-16T00:28:31.701Z,3.87
2022-10-16T00:31:04.995Z,3.57
2022-10-16T00:33:33.019Z,3.30
2022-10-16T00:36:01.105Z,3.73
2022-10-16T00:38:29.180Z,3.93
2022-10-16T00:40:57.352Z,3.70
2022-10-16T00:43:38.175Z,3.80
2022-10-16T00:46:15.622Z,3.87
2022-10-16T00:48:47.729Z,4.13
2022-10-16T00:51:16.663Z,3.47
2022-10-16T00:53:44.862Z,3.80
2022-10-16T00:56:13.302Z,3.77
2022-10-16T00:58:41.606Z,3.73
2022-10-16T01:01:11.144Z,3.87
2022-10-16T01:03:39.786Z,3.53
2022-10-16T01:06:21.556Z,4.07
2022-10-16T01:09:02.894Z,3.70
2022-10-16T01:11:35.887Z,3.93
2022-10-16T01:14:13.639Z,3.73
2022-10-16T01:16:50.218Z,4.27
2022-10-16T01:19:27.073Z,3.50
2022-10-16T01:21:56.739Z,4.07
2022-10-16T01:24:33.348Z,3.63
2022-10-16T01:27:15.352Z,4.23
2022-10-16T01:29:51.889Z,3.77
2022-10-16T01:32:24.248Z,4.30
2022-10-16T01:34:55.654Z,4.00
2022-10-16T01:37:34.686Z,4.17
2022-10-16T01:40:07.507Z,4.07
2022-10-16T01:42:41.539Z,4.07
2022-10-16T01:45:12.510Z,4.27
2022-10-16T01:47:42.091Z,5.23
2022-10-16T01:50:10.856Z,4.50
2022-10-16T01:52:44.042Z,4.43
2022-10-16T01:55:14.673Z,4.57
2022-10-16T01:57:48.229Z,4.10
2022-10-16T02:00:18.962Z,3.87
2022-10-16T02:02:51.134Z,3.67
2022-10-16T02:05:25.677Z,4.97
2022-10-16T02:07:54.099Z,3.97
2022-10-16T02:10:22.585Z,3.67
2022-10-16T02:12:57.465Z,3.20
2022-10-16T02:15:25.523Z,3.97
2022-10-16T02:17:53.540Z,2.90
2022-10-16T02:20:29.405Z,3.00
2022-10-16T02:22:58.927Z,2.50
2022-10-16T02:25:32.124Z,2.60
2022-10-16T02:28:06.426Z,3.00
2022-10-16T02:30:38.821Z,2.63
2022-10-16T02:33:10.573Z,2.30
2022-10-16T02:35:39.606Z,2.13
2022-10-16T02:40:39.128Z,2.00
2022-10-16T02:43:10.064Z,2.40
2022-10-16T02:45:38.298Z,2.03
2022-10-16T02:48:06.845Z,2.07
2022-10-16T02:50:34.909Z,2.73
2022-10-16T02:53:03.199Z,1.90
2022-10-16T02:55:31.453Z,2.30
2022-10-16T02:57:59.464Z,2.30
2022-10-16T03:05:59.569Z,2.10
2022-10-16T03:08:27.735Z,2.37
2022-10-16T03:10:55.753Z,2.10
2022-10-16T03:13:23.768Z,1.90
2022-10-16T03:15:51.850Z,2.37
2022-10-16T03:18:19.865Z,2.07
2022-10-16T03:20:47.982Z,2.00
2022-10-16T03:23:17.501Z,1.73
2022-10-16T03:25:47.308Z,1.63
2022-10-16T03:28:16.536Z,2.30
2022-10-16T03:30:45.672Z,2.20
2022-10-16T03:33:13.980Z,1.93
2022-10-16T03:35:42.088Z,1.87
2022-10-16T03:38:10.161Z,2.00
2022-10-16T03:40:39.575Z,2.93
2022-10-16T03:43:07.667Z,2.50
2022-10-16T03:45:35.759Z,2.03
2022-10-16T03:48:04.396Z,2.07
2022-10-16T03:50:32.533Z,2.10
2022-10-16T03:53:00.607Z,1.73
2022-10-16T03:55:28.675Z,2.30
2022-10-16T03:57:58.124Z,2.40
2022-10-16T04:00:26.192Z,2.23
2022-10-16T04:02:54.249Z,2.20
2022-10-16T04:05:22.295Z,2.07
2022-10-16T04:07:50.422Z,2.13
2022-10-16T04:10:18.588Z,2.07
2022-10-16T04:12:46.667Z,2.10
2022-10-16T04:15:16.159Z,1.87
2022-10-16T04:17:44.202Z,2.17
2022-10-16T04:20:12.207Z,2.13
2022-10-16T04:22:40.281Z,2.23
2022-10-16T04:25:08.769Z,2.00
2022-10-16T04:27:36.797Z,2.00
2022-10-16T04:30:06.068Z,2.33
2022-10-16T04:32:35.472Z,2.07
2022-10-16T04:35:03.879Z,2.10
2022-10-16T04:37:31.935Z,1.70
2022-10-16T04:39:59.988Z,1.87
2022-10-16T04:42:28.056Z,1.87
2022-10-16T04:44:56.094Z,2.10
2022-10-16T04:47:24.460Z,1.90
2022-10-16T04:49:54.207Z,2.03
2022-10-16T04:52:22.663Z,2.20
2022-10-16T04:54:51.443Z,2.23
2022-10-16T04:57:19.963Z,2.17
2022-10-16T04:59:47.997Z,2.03
2022-10-16T05:02:15.983Z,2.00
2022-10-16T05:04:44.033Z,1.83
2022-10-16T05:07:13.521Z,2.20
2022-10-16T05:09:41.515Z,2.60
2022-10-16T05:12:09.568Z,2.07
2022-10-16T05:14:37.569Z,2.20
2022-10-16T05:17:05.742Z,2.23
2022-10-16T05:19:33.783Z,1.93
2022-10-16T05:22:01.855Z,2.20
2022-10-16T05:24:31.291Z,2.30
2022-10-16T05:26:59.518Z,2.47
2022-10-16T05:29:27.808Z,2.40
2022-10-16T05:31:56.107Z,2.43
2022-10-16T05:34:24.248Z,2.40
2022-10-16T05:36:52.418Z,2.30
2022-10-16T05:39:20.553Z,2.30
2022-10-16T05:41:52.123Z,2.77
2022-10-16T05:44:20.234Z,1.93
2022-10-16T05:46:48.797Z,2.00
2022-10-16T05:49:17.010Z,2.33
2022-10-16T05:51:45.433Z,3.73
2022-10-16T05:54:13.613Z,2.43
2022-10-16T05:56:41.658Z,2.40
2022-10-16T05:59:11.119Z,2.40
2022-10-16T06:01:39.156Z,2.53
2022-10-16T06:04:07.315Z,2.70
2022-10-16T06:06:37.271Z,2.87
2022-10-16T06:09:06.209Z,2.60
2022-10-16T06:11:35.567Z,2.50
2022-10-16T06:14:07.825Z,2.40
2022-10-16T06:16:38.382Z,2.40
2022-10-16T06:19:09.988Z,2.73
2022-10-16T06:21:38.044Z,2.57
2022-10-16T06:24:06.404Z,2.50
2022-10-16T06:26:34.444Z,2.97
2022-10-16T06:29:03.025Z,2.90
2022-10-16T06:31:32.648Z,2.90
2022-10-16T06:34:02.346Z,3.53
2022-10-16T06:36:31.118Z,2.60
2022-10-16T06:38:59.122Z,2.57
2022-10-16T06:41:27.160Z,3.00
2022-10-16T06:43:55.194Z,2.57
2022-10-16T06:46:25.845Z,2.90
2022-10-16T06:48:54.608Z,2.60
2022-10-16T06:51:26.055Z,2.83
2022-10-16T06:54:05.041Z,2.77
2022-10-16T06:56:34.109Z,2.70
2022-10-16T06:59:02.741Z,2.30
2022-10-16T07:01:31.562Z,2.50
2022-10-16T07:03:59.909Z,2.40
2022-10-16T07:06:32.743Z,1.60
2022-10-16T07:09:02.867Z,1.53
2022-10-16T07:11:30.912Z,1.10
2022-10-16T07:13:59.247Z,1.88
2022-10-16T07:16:29.349Z,1.40
2022-10-16T07:18:59.806Z,1.25
2022-10-16T07:21:31.958Z,1.45
2022-10-16T07:24:02.361Z,1.10
2022-10-16T07:26:32.852Z,1.58
2022-10-16T07:29:01.232Z,1.40
2022-10-16T07:31:29.766Z,1.30
2022-10-16T07:34:00.034Z,1.50
2022-10-16T07:36:29.700Z,1.27
2022-10-16T07:38:59.897Z,1.63
2022-10-16T07:41:29.058Z,1.57
2022-10-16T07:44:00.885Z,1.45
2022-10-16T07:46:29.379Z,1.30
2022-10-16T07:48:57.644Z,1.63
2022-10-16T07:51:27.095Z,2.00
2022-10-16T07:53:56.820Z,1.70
2022-10-16T07:56:24.936Z,1.40
2022-10-16T07:58:53.784Z,1.50
2022-10-16T08:01:22.499Z,1.75
2022-10-16T08:03:52.320Z,1.40
2022-10-16T08:06:25.101Z,1.50
2022-10-16T08:08:57.863Z,1.60
2022-10-16T08:11:26.057Z,1.30
2022-10-16T08:13:54.190Z,1.48
2022-10-16T08:16:23.362Z,1.58
2022-10-16T08:18:52.435Z,1.17
2022-10-16T08:21:24.047Z,1.30
2022-10-16T08:23:56.940Z,1.27
2022-10-16T08:26:28.721Z,1.17
2022-10-16T08:28:57.579Z,1.73
2022-10-16T08:31:27.358Z,1.50
2022-10-16T08:33:55.591Z,1.17
2022-10-16T08:36:23.683Z,1.50
2022-10-16T08:38:54.505Z,1.00
2022-10-16T08:41:44.064Z,1.17
2022-10-16T08:44:33.334Z,1.25
2022-10-16T08:47:10.501Z,1.10
2022-10-16T08:49:39.982Z,1.25
2022-10-16T08:52:14.745Z,1.20
2022-10-16T08:54:47.122Z,1.20
2022-10-16T08:57:23.050Z,1.50
2022-10-16T08:59:52.280Z,1.10
2022-10-16T09:02:29.552Z,1.23
2022-10-16T09:05:20.122Z,1.40
2022-10-16T09:07:58.619Z,1.10
2022-10-16T09:10:40.648Z,1.20
2022-10-16T09:13:21.397Z,1.40
2022-10-16T09:15:57.982Z,1.30
2022-10-16T09:18:32.887Z,1.10
2022-10-16T09:21:07.601Z,1.50
2022-10-16T09:23:38.651Z,1.10
2022-10-16T09:26:11.919Z,1.35
2022-10-16T09:28:41.548Z,1.77
2022-10-16T09:31:17.427Z,1.27
2022-10-16T09:33:47.587Z,1.17
2022-10-16T09:36:16.176Z,1.20
2022-10-16T09:38:44.780Z,1.10
2022-10-16T09:41:19.728Z,1.70
2022-10-16T09:43:56.790Z,1.60
2022-10-16T09:46:29.062Z,1.33
2022-10-16T09:48:59.303Z,1.50
2022-10-16T09:51:30.452Z,1.60
2022-10-16T09:54:01.094Z,1.38
2022-10-16T09:56:31.036Z,1.65
2022-10-16T09:59:02.626Z,1.50
2022-10-16T10:01:37.802Z,1.70
2022-10-16T10:04:06.736Z,1.70
2022-10-16T10:06:38.976Z,1.75
2022-10-16T10:09:20.013Z,1.85
2022-10-16T10:11:52.207Z,1.48
2022-10-16T10:14:37.180Z,2.25
2022-10-16T10:17:13.804Z,1.55
2022-10-16T10:19:44.200Z,1.70
2022-10-16T10:22:29.469Z,1.75
2022-10-16T10:25:28.144Z,1.52
2022-10-16T10:28:25.918Z,1.42
2022-10-16T10:31:01.940Z,1.55
2022-10-16T10:33:38.673Z,2.50
2022-10-16T10:36:19.485Z,1.63
2022-10-16T10:38:53.742Z,2.30
2022-10-16T10:41:54.447Z,1.77
2022-10-16T10:44:32.679Z,1.48
2022-10-16T10:47:14.023Z,1.83
2022-10-16T10:49:56.839Z,1.50
2022-10-16T10:52:53.427Z,1.67
2022-10-16T10:55:28.709Z,1.70
2022-10-16T10:58:24.093Z,1.35
2022-10-16T11:00:58.833Z,1.90
2022-10-16T11:03:58.174Z,0.98
2022-10-16T11:06:30.461Z,1.73
2022-10-16T11:09:03.289Z,1.75
2022-10-16T11:11:36.924Z,1.63
2022-10-16T11:14:14.180Z,1.42
2022-10-16T11:16:47.780Z,1.33
2022-10-16T11:19:27.421Z,1.80
2022-10-16T11:22:01.277Z,2.10
2022-10-16T11:24:40.104Z,1.60
2022-10-16T11:27:11.538Z,1.58
2022-10-16T11:29:47.126Z,2.58
2022-10-16T11:32:23.078Z,2.05
2022-10-16T11:34:59.422Z,1.58
2022-10-16T11:37:32.943Z,1.30
2022-10-16T11:40:13.326Z,2.03
2022-10-16T11:42:48.582Z,1.75
2022-10-16T11:45:29.101Z,1.45
2022-10-16T11:48:03.354Z,1.73
2022-10-16T11:50:38.015Z,2.45
2022-10-16T11:53:16.002Z,1.80
2022-10-16T11:55:47.047Z,1.80
2022-10-16T11:58:23.834Z,1.55
2022-10-16T12:00:59.972Z,3.17
2022-10-16T12:03:34.925Z,2.63
2022-10-16T12:06:21.511Z,1.40
2022-10-16T12:08:50.134Z,2.88
2022-10-16T12:11:36.372Z,1.48
2022-10-16T12:14:24.309Z,1.73
2022-10-16T12:16:57.797Z,2.05
2022-10-16T12:19:27.593Z,1.40
2022-10-16T12:22:00.045Z,1.83
2022-10-16T12:24:36.482Z,1.98
2022-10-16T12:27:07.081Z,1.92
2022-10-16T12:29:38.137Z,2.30
2022-10-16T12:32:42.041Z,1.63
2022-10-16T12:35:22.169Z,1.83
2022-10-16T12:37:52.405Z,1.58
2022-10-16T12:40:30.128Z,1.90
2022-10-16T12:43:00.878Z,1.50
2022-10-16T12:45:33.511Z,1.65
2022-10-16T12:48:03.252Z,1.40
2022-10-16T12:50:37.362Z,2.17
2022-10-16T12:53:20.892Z,1.90
2022-10-16T12:56:05.516Z,1.75
2022-10-16T12:58:57.283Z,2.05
2022-10-16T13:01:39.100Z,1.55
2022-10-16T13:04:41.375Z,1.38
2022-10-16T13:07:42.111Z,1.35
2022-10-16T13:10:19.913Z,1.67
2022-10-16T13:13:22.560Z,2.45
2022-10-16T13:16:00.803Z,2.03
2022-10-16T13:18:34.462Z,1.45
2022-10-16T13:21:11.678Z,1.50
2022-10-16T13:23:48.912Z,1.80
2022-10-16T13:26:28.629Z,1.92
2022-10-16T13:29:01.613Z,1.30
2022-10-16T13:31:31.907Z,1.15
2022-10-16T13:34:01.862Z,1.85
2022-10-16T13:36:32.462Z,0.93
2022-10-16T13:39:13.678Z,1.58
2022-10-16T13:41:43.224Z,2.45
2022-10-16T13:44:17.580Z,1.70
2022-10-16T13:46:45.713Z,1.63
2022-10-16T13:49:17.812Z,2.00
2022-10-16T13:51:57.221Z,1.70
2022-10-16T13:54:25.564Z,1.30
2022-10-16T13:57:03.395Z,1.90
2022-10-16T13:59:39.948Z,1.80
2022-10-16T14:02:18.093Z,1.67
2022-10-16T14:04:46.425Z,1.40
2022-10-16T14:07:21.547Z,1.45
2022-10-16T14:09:52.174Z,1.33
2022-10-16T14:12:24.087Z,1.40
2022-10-16T14:14:57.607Z,1.20
2022-10-16T14:17:28.427Z,1.65
2022-10-16T14:20:02.445Z,1.50
2022-10-16T14:22:35.235Z,1.40
2022-10-16T14:25:04.284Z,1.60
2022-10-16T14:27:36.096Z,1.30
2022-10-16T14:30:18.816Z,1.38
2022-10-16T14:32:57.471Z,2.33
2022-10-16T14:35:28.363Z,1.55
2022-10-16T14:37:58.126Z,1.40
2022-10-16T14:40:28.064Z,1.67
2022-10-16T14:42:57.837Z,1.58
2022-10-16T14:45:29.168Z,1.63
2022-10-16T14:48:00.090Z,1.65
2022-10-16T14:50:28.597Z,1.52
2022-10-16T14:52:57.004Z,1.50
2022-10-16T14:55:25.778Z,1.20
2022-10-16T14:57:58.215Z,1.85
2022-10-16T15:00:30.299Z,1.40
2022-10-16T15:02:58.361Z,1.60
2022-10-16T15:05:28.164Z,1.35
2022-10-16T15:07:56.953Z,1.83
2022-10-16T15:10:26.563Z,1.33
2022-10-16T15:12:54.956Z,1.45
2022-10-16T15:15:43.953Z,1.30
2022-10-16T15:18:21.122Z,1.30
2022-10-16T15:20:52.066Z,1.23
2022-10-16T15:23:22.655Z,1.58
2022-10-16T15:25:52.417Z,1.48
2022-10-16T15:28:21.643Z,1.17
2022-10-16T15:30:52.508Z,1.23
2022-10-16T15:41:56.856Z,2.15
2022-10-16T15:44:27.169Z,1.95
2022-10-16T15:46:57.601Z,1.77
2022-10-16T15:49:25.631Z,1.80
2022-10-16T15:51:54.161Z,2.03
2022-10-16T15:54:23.849Z,1.58
2022-10-16T15:56:51.884Z,2.15
2022-10-16T15:59:19.895Z,2.15
2022-10-16T16:01:48.014Z,2.60
2022-10-16T16:04:39.171Z,1.63
2022-10-16T16:07:08.290Z,2.08
2022-10-16T16:09:36.407Z,1.55
2022-10-16T16:12:04.755Z,1.63
2022-10-16T16:14:32.854Z,1.35
2022-10-16T16:17:00.929Z,1.50
2022-10-16T16:19:30.456Z,1.20
2022-10-16T16:21:58.456Z,1.83
2022-10-16T16:24:26.543Z,1.50
2022-10-16T16:26:54.634Z,2.00
2022-10-16T16:29:22.704Z,1.70
2022-10-16T16:31:50.773Z,2.20
2022-10-16T16:34:19.292Z,2.43
2022-10-16T16:36:48.697Z,1.57
2022-10-16T16:39:16.951Z,3.50
2022-10-16T16:41:46.549Z,1.60
2022-10-16T16:44:15.871Z,1.57
2022-10-16T16:46:44.812Z,2.10
2022-10-16T16:49:15.061Z,1.67
2022-10-16T16:51:43.285Z,1.80
2022-10-16T16:54:14.836Z,1.63
2022-10-16T16:56:44.075Z,1.97
2022-10-16T16:59:16.727Z,2.60
2022-10-16T17:01:44.792Z,1.93
2022-10-16T17:04:13.087Z,1.93
2022-10-16T17:06:41.450Z,2.33
2022-10-16T17:09:10.545Z,1.83
2022-10-16T17:11:42.308Z,2.10
2022-10-16T17:14:10.894Z,2.13
2022-10-16T17:16:40.683Z,2.30
2022-10-16T17:19:12.149Z,2.53
2022-10-16T17:21:40.435Z,2.13
2022-10-16T17:24:08.823Z,1.53
2022-10-16T17:26:38.366Z,1.80
2022-10-16T17:29:08.273Z,1.67
2022-10-16T17:31:37.784Z,2.10
2022-10-16T17:34:08.018Z,1.53
2022-10-16T17:36:38.516Z,1.73
2022-10-16T17:39:08.838Z,2.27
2022-10-16T17:41:37.636Z,2.37
2022-10-16T17:44:07.432Z,2.20
2022-10-16T17:46:40.034Z,4.13
2022-10-16T17:49:10.671Z,2.20
2022-10-16T17:51:38.796Z,1.97
2022-10-16T17:54:07.666Z,2.07
2022-10-16T17:56:36.211Z,1.60
2022-10-16T17:59:05.161Z,1.80
2022-10-16T18:01:36.819Z,2.00
2022-10-16T18:04:07.432Z,1.87
2022-10-16T18:06:35.746Z,2.20
2022-10-16T18:09:05.251Z,1.67
2022-10-16T18:11:33.505Z,1.70
2022-10-16T18:14:01.699Z,2.03
2022-10-16T18:16:31.765Z,1.90
2022-10-16T18:19:01.348Z,2.83
2022-10-16T18:21:29.855Z,3.13
2022-10-16T18:24:00.155Z,3.00
2022-10-16T18:26:28.438Z,3.10
2022-10-16T18:28:58.212Z,2.50
2022-10-16T18:31:27.279Z,3.30
2022-10-16T18:33:56.298Z,2.70
2022-10-16T18:36:29.410Z,3.57
2022-10-16T18:38:57.833Z,3.83
2022-10-16T18:41:26.242Z,3.83
2022-10-16T18:43:54.671Z,3.60
2022-10-16T18:46:24.513Z,6.70
2022-10-16T18:48:54.348Z,10.20
2022-10-16T18:51:26.588Z,7.63
2022-10-16T18:53:57.569Z,4.33
2022-10-16T18:56:27.095Z,3.20
2022-10-16T18:58:55.249Z,2.67
2022-10-16T19:01:25.321Z,2.40
2022-10-16T19:03:57.103Z,1.70
2022-10-16T19:06:27.754Z,2.00
2022-10-16T19:08:56.540Z,2.00
2022-10-16T19:11:25.903Z,1.50
2022-10-16T19:13:55.395Z,2.00
2022-10-16T19:16:25.250Z,1.70
2022-10-16T19:18:55.085Z,1.40
2022-10-16T19:21:24.313Z,1.60
2022-10-16T19:23:54.583Z,1.20
2022-10-16T19:26:23.553Z,1.50
2022-10-16T19:28:53.391Z,1.60
2022-10-16T19:31:23.330Z,1.80
2022-10-16T19:33:53.777Z,1.40
2022-10-16T19:36:24.213Z,1.77
2022-10-16T19:38:56.780Z,1.47
2022-10-16T19:41:26.068Z,1.50
2022-10-16T19:43:54.530Z,1.70
2022-10-16T19:46:24.870Z,1.90
2022-10-16T19:48:56.742Z,1.47
2022-10-16T19:51:26.227Z,1.80
2022-10-16T19:53:57.853Z,1.10
2022-10-16T19:56:27.868Z,1.30
2022-10-16T19:58:57.501Z,1.60
2022-10-16T20:01:26.925Z,1.37
2022-10-16T20:03:55.234Z,1.67
2022-10-16T20:06:23.946Z,1.80
2022-10-16T20:08:53.809Z,1.50
2022-10-16T20:11:25.223Z,2.47
2022-10-16T20:13:53.628Z,1.97
2022-10-16T20:16:21.924Z,1.50
2022-10-16T20:18:51.543Z,1.40
2022-10-16T20:21:21.379Z,1.50
2022-10-16T20:23:51.017Z,1.60
2022-10-16T20:26:20.539Z,1.50
2022-10-16T20:28:50.159Z,1.90
2022-10-16T20:31:22.506Z,2.03
2022-10-16T20:33:51.167Z,2.20
2022-10-16T20:36:20.300Z,2.30
2022-10-16T20:38:48.345Z,2.10
2022-10-16T20:41:17.559Z,1.97
2022-10-16T20:43:47.674Z,2.40
2022-10-16T20:46:18.809Z,2.93
2022-10-16T20:48:47.691Z,2.60
2022-10-16T20:51:17.913Z,2.27
2022-10-16T20:53:47.113Z,2.83
2022-10-16T20:56:17.479Z,2.30
2022-10-16T20:58:46.298Z,2.10
2022-10-16T21:01:17.181Z,2.00
2022-10-16T21:03:45.739Z,1.83
2022-10-16T21:06:13.783Z,2.27
2022-10-16T21:08:43.411Z,2.50
2022-10-16T21:11:13.535Z,2.90
2022-10-16T21:13:41.978Z,2.13
2022-10-16T21:16:11.459Z,2.57
2022-10-16T21:18:44.420Z,2.33
2022-10-16T21:21:21.588Z,2.20
2022-10-16T21:23:50.056Z,2.50
2022-10-16T21:26:20.991Z,2.47
2022-10-16T21:28:49.147Z,1.80
2022-10-16T21:31:19.986Z,2.77
2022-10-16T21:33:50.542Z,1.90
2022-10-16T21:44:43.038Z,2.37
2022-10-16T21:47:11.329Z,2.40
2022-10-16T21:49:40.699Z,2.90
2022-10-16T21:52:08.735Z,2.47
2022-10-16T21:54:36.760Z,2.60
2022-10-16T21:59:37.841Z,3.10
2022-10-16T22:02:06.376Z,2.57
2022-10-16T22:04:34.639Z,3.07
2022-10-16T22:07:04.237Z,3.00
2022-10-16T22:09:32.291Z,3.10
2022-10-16T22:12:00.372Z,2.73
2022-10-16T22:14:28.374Z,2.77
2022-10-16T22:16:56.473Z,2.80
2022-10-16T22:19:24.603Z,3.67
2022-10-16T22:21:57.241Z,3.03
2022-10-16T22:24:26.692Z,2.90
2022-10-16T22:26:54.988Z,2.40
2022-10-16T22:29:23.685Z,3.10
2022-10-16T22:31:53.229Z,2.93
2022-10-16T22:34:21.453Z,3.00
2022-10-16T22:36:50.859Z,3.00
2022-10-16T22:39:19.480Z,2.60
2022-10-16T22:41:48.894Z,2.70
2022-10-16T22:44:16.918Z,3.40
2022-10-16T22:46:44.975Z,2.93
2022-10-16T22:49:13.040Z,2.80
2022-10-16T22:51:41.225Z,2.90
2022-10-16T22:54:09.243Z,2.97
2022-10-16T22:56:37.248Z,2.73
2022-10-16T22:59:07.035Z,3.23
2022-10-16T23:01:37.605Z,3.40
2022-10-16T23:04:06.515Z,3.53
2022-10-16T23:06:35.135Z,3.80
2022-10-16T23:09:04.091Z,3.50
2022-10-16T23:11:32.330Z,3.23
2022-10-16T23:14:00.363Z,3.30
2022-10-16T23:16:29.843Z,3.03
2022-10-16T23:18:59.098Z,3.17
2022-10-16T23:21:27.273Z,2.97
2022-10-16T23:23:55.867Z,3.10
2022-10-16T23:26:25.730Z,3.60
2022-10-16T23:28:54.427Z,3.10
2022-10-16T23:31:22.541Z,3.37
2022-10-16T23:33:52.041Z,3.33
2022-10-16T23:36:21.912Z,3.27
2022-10-16T23:38:51.086Z,3.33
2022-10-16T23:41:20.099Z,2.93
2022-10-16T23:43:48.434Z,3.37
2022-10-16T23:46:16.954Z,3.60
2022-10-16T23:48:45.414Z,3.77
2022-10-16T23:51:15.140Z,3.80
2022-10-16T23:53:43.296Z,4.00
2022-10-16T23:56:11.307Z,4.13
2022-10-16T23:58:39.474Z,4.37
